Latest Weather Observations for Nowra

IDN60801

Issued at 5:02 pm EDT Wednesday 22 February 2017 (issued every 30 minutes, with the page automatically refreshed every 10 minutes)

About weather observations | Map of weather stations | Latest weather observations for NSW | Other Formats
Station Details ID: 068072 Name: NOWRA RAN AIR STATION AWS Lat: -34.95 Lon: 150.54 Height: 109.0 m
Data from the previous 72 hours. | See also: Recent months at Nowra
Date/Time
EDT
Temp
°C
App
Temp
°C
Dew
Point
°C
Rel
Hum
%
Delta-T
°C
Wind Press
QNH
hPa
Press
MSL
hPa
Rain since
9am
mm
Dir  Spd
km/h
Gust
km/h
Spd
kts
Gust
kts
22/04:30pm 27.6 22.7 15.3 47 7.5 NE 35 43 19 23 1016.1 1015.7 0.0
22/04:00pm 27.8 23.3 15.5 47 7.5 NE 33 44 18 24 1016.3 1015.9 0.0
22/03:30pm 28.7 24.6 15.9 45 7.9 ENE 32 46 17 25 1016.5 1016.1 0.0
22/03:00pm 28.7 24.5 15.6 45 8.1 NE 32 39 17 21 1016.8 1016.4 0.0
22/02:30pm 28.6 24.6 16.2 47 7.7 ENE 32 43 17 23 1017.1 1016.7 0.0
22/02:00pm 28.6 25.4 16.2 47 7.7 ENE 28 37 15 20 1017.6 1017.2 0.0
22/01:30pm 28.9 26.7 14.3 40 8.8 N 19 26 10 14 1017.8 1017.4 0.0
22/01:00pm 28.6 26.7 14.1 41 8.7 N 17 26 9 14 1018.3 1017.9 0.0
22/12:30pm 28.1 25.6 13.6 41 8.6 N 19 26 10 14 1018.7 1018.3 0.0
22/12:00pm 27.1 24.3 13.1 42 8.2 N 20 30 11 16 1019.2 1018.8 0.0
22/11:30am 27.0 24.8 13.4 43 8.0 N 17 26 9 14 1019.7 1019.3 0.0
22/11:00am 26.7 24.2 14.1 46 7.5 N 20 30 11 16 1020.2 1019.8 0.0
22/10:30am 25.9 24.3 15.0 51 6.6 NNW 17 24 9 13 1020.5 1020.1 0.0
22/10:00am 24.5 22.8 14.6 54 5.9 N 17 26 9 14 1020.8 1020.4 0.0
22/09:30am 23.3 23.1 14.8 59 5.1 N 9 13 5 7 1020.9 1020.5 0.0
22/09:00am 22.5 22.4 14.9 62 4.5 NW 9 13 5 7 1020.9 1020.5 0.0
22/08:30am 21.4 20.9 15.0 67 3.8 NW 11 13 6 7 1020.8 1020.4 0.0
22/08:00am 18.2 20.3 16.2 88 1.2 CALM 0 0 0 0 1020.5 1020.1 0.0
22/07:30am 15.6 17.4 15.4 99 0.1 CALM 0 0 0 0 1020.3 1019.9 0.0
22/07:00am 14.5 15.1 14.3 99 0.1 W 4 9 2 5 1019.9 1019.5 0.0
22/06:30am 14.1 15.0 13.9 99 0.1 W 2 9 1 5 1019.7 1019.3 0.0
22/06:00am 14.0 15.2 13.8 99 0.1 CALM 0 0 0 0 1019.4 1019.0 0.0
22/05:30am 14.2 15.0 13.6 96 0.3 W 2 9 1 5 1019.2 1018.8 0.0
22/05:00am 14.8 14.7 13.8 94 0.6 W 7 9 4 5 1019.2 1018.8 0.0
22/04:30am 14.7 15.8 13.6 93 0.6 CALM 0 0 0 0 1019.2 1018.8 0.0
22/04:00am 15.7 17.1 14.4 92 0.7 CALM 0 0 0 0 1019.3 1018.9 0.0
22/03:30am 15.6 15.8 14.1 91 0.9 W 6 7 3 4 1019.5 1019.1 0.0
22/03:00am 15.9 17.3 14.4 91 0.9 CALM 0 7 0 4 1019.7 1019.3 0.0
22/02:30am 16.0 17.3 14.0 88 1.1 CALM 0 0 0 0 1019.8 1019.4 0.0
22/02:00am 16.5 16.7 14.2 86 1.3 W 6 9 3 5 1020.0 1019.6 0.0
22/01:30am 17.8 18.9 14.7 82 1.8 W 2 9 1 5 1020.2 1019.8 0.0
22/01:00am 17.9 19.3 14.4 80 2.0 CALM 0 0 0 0 1020.5 1020.1 0.0
22/12:30am 18.3 19.0 14.4 78 2.3 WSW 4 11 2 6 1020.8 1020.4 0.0
22/12:00am 19.3 18.3 14.6 74 2.7 SSW 13 15 7 8 1020.9 1020.5 0.0
 
Date/Time
EDT
Temp
°C
App
Temp
°C
Dew
Point
°C
Rel
Hum
%
Delta-T
°C
Wind Press
QNH
hPa
Press
MSL
hPa
Rain since
9am
mm
Dir  Spd
km/h
Gust
km/h
Spd
kts
Gust
kts
21/11:30pm 18.3 17.6 14.4 78 2.3 SW 11 13 6 7 1021.0 1020.6 0.0
21/11:00pm 18.8 18.4 14.1 74 2.7 SW 9 13 5 7 1021.1 1020.7 0.0
21/10:30pm 18.7 18.3 14.2 75 2.6 SW 9 9 5 5 1021.3 1020.9 0.0
21/10:00pm 20.3 20.1 13.5 65 3.9 SW 7 15 4 8 1021.3 1020.9 0.0
21/09:30pm 18.7 18.5 13.6 72 2.9 SSW 7 9 4 5 1021.2 1020.8 0.0
21/09:00pm 19.1 18.9 13.5 70 3.2 SSW 7 9 4 5 1020.9 1020.5 0.0
21/08:30pm 17.9 18.4 12.8 72 2.9 SE 2 11 1 6 1020.5 1020.1 0.0
21/08:00pm 20.4 20.0 12.4 60 4.5 ENE 6 7 3 4 1020.2 1019.8 0.0
21/07:30pm 21.2 19.8 12.3 57 5.0 NE 11 13 6 7 1020.0 1019.6 0.0
21/07:00pm 22.3 20.1 12.0 52 5.8 ENE 15 19 8 10 1019.7 1019.3 0.0
21/06:30pm 23.0 21.3 14.6 59 5.0 SE 17 20 9 11 1019.1 1018.7 0.0
21/06:00pm 22.7 21.4 15.8 65 4.2 SE 17 22 9 12 1019.2 1018.8 0.0
21/05:30pm 23.6 21.2 15.4 60 4.9 SE 22 30 12 16 1019.1 1018.7 0.0
21/05:00pm 22.8 20.2 14.9 61 4.7 SE 22 30 12 16 1019.1 1018.7 0.0
21/04:30pm 23.7 20.7 14.9 57 5.3 SE 24 33 13 18 1019.0 1018.6 0.0
21/04:00pm 23.3 20.0 14.0 56 5.5 SE 24 32 13 17 1019.1 1018.7 0.0
21/03:30pm 22.6 19.4 14.2 59 4.9 ESE 24 32 13 17 1019.0 1018.6 0.0
21/03:00pm 24.3 20.8 14.4 54 5.9 SSE 26 33 14 18 1019.0 1018.6 0.0
21/02:30pm 25.1 21.8 13.9 49 6.6 SSE 24 33 13 18 1019.2 1018.8 0.0
21/02:00pm 24.1 20.8 12.7 49 6.6 SSE 22 28 12 15 1019.4 1019.0 0.0
21/01:30pm 23.1 19.5 11.8 49 6.4 SSE 22 30 12 16 1019.6 1019.2 0.0
21/01:00pm 24.1 21.1 12.7 49 6.6 SSE 20 32 11 17 1019.7 1019.3 0.0
21/12:30pm 23.8 21.5 13.1 51 6.2 SE 17 24 9 13 1020.0 1019.6 0.0
21/12:00pm 23.0 20.8 12.0 50 6.2 SE 15 26 8 14 1020.4 1020.0 0.0
21/11:30am 23.6 21.6 12.6 50 6.3 SE 15 20 8 11 1020.5 1020.1 0.0
21/11:00am 23.1 21.1 11.5 48 6.5 SE 13 20 7 11 1020.9 1020.5 0.0
21/10:30am 22.3 20.2 11.1 49 6.2 SSE 13 24 7 13 1020.9 1020.5 0.0
21/10:00am 22.0 18.8 11.1 50 6.0 SSE 19 24 10 13 1020.7 1020.3 0.0
21/09:30am 21.3 19.1 10.8 51 5.8 S 13 19 7 10 1020.5 1020.1 0.0
21/09:00am 19.7 17.9 9.6 52 5.4 W 9 13 5 7 1020.4 1020.0 0.0
21/08:30am 17.9 15.5 8.7 55 4.8 WNW 11 15 6 8 1019.8 1019.4 0.0
21/08:00am 16.4 14.3 8.1 58 4.2 WNW 9 13 5 7 1019.4 1019.0 0.0
21/07:30am 15.0 12.3 7.5 61 3.7 WNW 11 15 6 8 1019.0 1018.6 0.0
21/07:00am 13.9 10.9 7.7 66 3.1 WNW 13 17 7 9 1018.5 1018.1 0.0
21/06:30am 13.9 10.4 7.4 65 3.2 WNW 15 17 8 9 1018.0 1017.6 0.0
21/06:00am 13.8 10.6 6.9 63 3.4 W 13 15 7 8 1017.8 1017.4 0.0
21/05:30am 14.5 10.8 6.3 58 4.0 WNW 15 19 8 10 1017.7 1017.3 0.0
21/05:00am 14.9 11.1 6.0 55 4.3 NW 15 19 8 10 1017.4 1017.0 0.0
21/04:30am 15.1 11.4 6.1 55 4.4 NW 15 20 8 11 1017.2 1016.8 0.0
21/04:00am 15.4 11.2 5.6 52 4.7 NW 17 22 9 12 1017.2 1016.8 0.0
21/03:30am 14.8 11.4 5.9 55 4.3 WNW 13 17 7 9 1017.1 1016.7 0.0
21/03:00am 14.5 11.4 5.6 55 4.2 WNW 11 15 6 8 1017.1 1016.7 0.0
21/02:30am 14.3 12.1 5.4 55 4.2 NNW 6 9 3 5 1017.0 1016.6 0.0
21/02:00am 13.7 12.3 5.3 57 3.9 NNW 2 9 1 5 1017.0 1016.6 0.0
21/01:30am 16.2 11.8 4.6 46 5.5 W 17 20 9 11 1016.9 1016.5 0.0
21/01:00am 16.0 12.3 4.7 47 5.3 W 13 15 7 8 1017.0 1016.6 0.0
21/12:30am 15.3 11.6 4.7 49 5.0 WNW 13 17 7 9 1016.9 1016.5 0.0
21/12:00am 15.2 11.7 5.4 52 4.7 W 13 15 7 8 1016.8 1016.4 0.0
 
Date/Time
EDT
Temp
°C
App
Temp
°C
Dew
Point
°C
Rel
Hum
%
Delta-T
°C
Wind Press
QNH
hPa
Press
MSL
hPa
Rain since
9am
mm
Dir  Spd
km/h
Gust
km/h
Spd
kts
Gust
kts
20/11:30pm 15.6 11.7 5.2 50 5.0 W 15 15 8 8 1016.6 1016.2 0.0
20/11:00pm 16.4 12.3 4.4 45 5.7 W 15 17 8 9 1016.4 1016.0 0.0
20/10:30pm 15.8 12.7 5.7 51 4.9 W 11 11 6 6 1016.3 1015.9 0.0
20/10:00pm 16.9 13.5 5.8 48 5.4 W 13 15 7 8 1015.9 1015.5 0.0
20/09:30pm 17.6 13.9 4.6 42 6.2 W 13 19 7 10 1015.3 1014.9 0.0
20/09:00pm 17.9 14.1 3.8 39 6.6 WSW 13 15 7 8 1014.6 1014.2 0.0
20/08:30pm 19.2 15.3 3.4 35 7.5 W 13 15 7 8 1013.7 1013.3 0.0
20/08:00pm 21.4 16.8 1.7 27 9.1 WNW 15 20 8 11 1013.0 1012.5 0.0
20/07:30pm 22.6 17.0 1.0 24 10.0 WNW 20 28 11 15 1012.1 1011.7 0.0
20/07:00pm 23.7 18.7 1.4 23 10.5 WNW 17 26 9 14 1011.1 1010.7 0.0
20/06:30pm 24.3 17.9 1.2 22 10.9 NW 24 35 13 19 1010.5 1010.1 0.0
20/06:00pm 24.8 18.8 1.0 21 11.2 NW 22 30 12 16 1010.3 1009.9 0.0
20/05:30pm 25.5 19.2 1.6 21 11.4 WNW 24 35 13 19 1009.9 1009.5 0.0
20/05:00pm 25.5 19.6 1.6 21 11.4 NW 22 41 12 22 1009.6 1009.2 0.0
20/04:30pm 25.4 18.6 0.8 20 11.6 NW 26 35 14 19 1009.5 1009.1 0.0
20/04:00pm 25.9 20.6 3.2 23 11.2 NW 20 35 11 19 1009.3 1008.9 0.0
20/03:30pm 25.2 18.8 0.7 20 11.5 NW 24 35 13 19 1009.1 1008.7 0.0
20/03:00pm 25.4 19.0 0.8 20 11.6 WNW 24 37 13 20 1009.3 1008.9 0.0
20/02:30pm 24.9 18.6 1.7 22 11.1 NW 24 39 13 21 1009.3 1008.9 0.0
20/02:00pm 24.1 18.1 1.1 22 10.8 W 22 35 12 19 1009.3 1008.9 0.0
20/01:30pm 24.0 16.6 1.6 23 10.6 WNW 30 43 16 23 1009.5 1009.1 0.0
20/01:00pm 23.1 15.8 2.6 26 9.8 W 30 43 16 23 1009.3 1008.9 0.0
20/12:30pm 22.8 15.7 1.2 24 10.0 WNW 28 39 15 21 1009.5 1009.1 0.0
20/12:00pm 21.9 14.4 1.0 25 9.6 WNW 30 44 16 24 1009.8 1009.4 0.0
20/11:30am 21.6 14.6 1.8 27 9.2 W 28 44 15 24 1010.2 1009.8 0.0
20/11:00am 20.3 14.4 1.7 29 8.6 W 22 39 12 21 1010.3 1009.9 0.0
20/10:30am 19.8 13.7 2.6 32 8.0 WNW 24 35 13 19 1010.3 1009.9 0.0
20/10:00am 18.4 13.0 2.7 35 7.3 WNW 20 32 11 17 1010.4 1010.0 0.0
20/09:30am 17.6 12.6 3.5 39 6.6 W 19 30 10 16 1010.5 1010.1 0.0
20/09:00am 16.7 11.4 3.1 40 6.3 W 20 32 11 17 1010.4 1010.0 0.0
20/08:30am 15.7 10.6 4.1 46 5.4 WNW 20 32 11 17 1010.5 1010.1 0.0
20/08:00am 15.2 10.1 4.3 48 5.1 WNW 20 30 11 16 1010.2 1009.8 0.0
20/07:30am 14.6 10.5 4.6 51 4.7 WNW 15 20 8 11 1010.0 1009.6 0.0
20/07:00am 14.4 9.0 4.4 51 4.7 WNW 22 28 12 15 1009.5 1009.1 0.0
20/06:30am 14.3 9.2 4.3 51 4.6 WNW 20 30 11 16 1009.1 1008.7 0.0
20/06:00am 14.8 10.3 4.2 49 4.9 WNW 17 22 9 12 1008.5 1008.1 0.0
20/05:30am 14.9 10.9 4.9 51 4.7 WNW 15 20 8 11 1008.3 1007.9 0.0
20/05:00am 15.3 11.2 4.4 48 5.1 NW 15 22 8 12 1007.8 1007.4 0.0
20/04:30am 15.4 11.6 3.9 46 5.3 NW 13 17 7 9 1007.9 1007.5 0.0
20/04:00am 16.1 11.4 3.2 42 5.9 WNW 17 24 9 13 1008.0 1007.6 0.0
20/03:30am 16.5 11.8 2.9 40 6.2 WNW 17 22 9 12 1007.7 1007.3 0.0
20/03:00am 17.2 11.9 2.8 38 6.6 W 20 26 11 14 1007.4 1007.0 0.0
20/02:30am 17.2 11.5 2.8 38 6.6 W 22 30 12 16 1006.9 1006.5 0.0
20/02:00am 16.9 12.2 3.2 40 6.3 W 17 24 9 13 1006.7 1006.3 0.0
20/01:30am 17.1 13.5 3.1 39 6.5 WNW 11 17 6 9 1006.8 1006.4 0.0
20/01:00am 16.5 13.1 3.9 43 5.9 WNW 11 13 6 7 1006.8 1006.4 0.0
20/12:30am 17.0 13.3 4.3 43 6.0 WNW 13 17 7 9 1007.0 1006.6 0.0
20/12:00am 16.6 13.3 6.4 51 5.0 WNW 13 15 7 8 1007.1 1006.7 0.0
 
Date/Time
EDT
Temp
°C
App
Temp
°C
Dew
Point
°C
Rel
Hum
%
Delta-T
°C
Wind Press
QNH
hPa
Press
MSL
hPa
Rain since
9am
mm
Dir  Spd
km/h
Gust
km/h
Spd
kts
Gust
kts
19/11:30pm 16.2 15.2 13.3 83 1.6 NW 11 13 6 7 1007.1 1006.7 0.0
19/11:00pm 16.7 16.7 15.1 90 0.9 NW 9 13 5 7 1007.2 1006.8 0.0
19/10:30pm 17.5 17.5 15.3 87 1.3 W 9 11 5 6 1006.5 1006.1 0.0
19/10:00pm 18.1 18.2 15.5 85 1.5 WSW 9 13 5 7 1006.3 1005.9 0.0
19/09:30pm 19.5 20.9 15.4 77 2.4 NW 2 9 1 5 1006.6 1006.2 0.0
19/09:00pm 18.4 19.0 15.3 82 1.8 W 6 13 3 7 1006.8 1006.4 0.0
19/08:30pm 18.8 19.4 15.3 80 2.1 SSW 6 11 3 6 1006.7 1006.3 0.0
19/08:00pm 20.2 19.8 15.2 73 3.0 ENE 11 15 6 8 1006.5 1006.1 0.0
19/07:30pm 21.0 20.8 14.6 67 3.8 E 9 17 5 9 1006.2 1005.8 0.0
19/07:00pm 21.5 19.7 14.4 64 4.2 ENE 17 22 9 12 1005.7 1005.3 0.0
19/06:30pm 22.3 19.8 13.4 57 5.2 ENE 19 24 10 13 1005.3 1004.9 0.0
19/06:00pm 22.8 20.6 13.3 55 5.5 ENE 17 22 9 12 1005.3 1004.9 0.0
19/05:30pm 23.2 20.6 13.1 53 5.8 E 19 26 10 14 1005.2 1004.8 0.0

Other Formats:

Comma delimited format used in spreadsheet applications
http://www.bom.gov.au/fwo/IDN60801/IDN60801.94750.axf

JavaScript Object Notation format (JSON) in row-major order
http://www.bom.gov.au/fwo/IDN60801/IDN60801.94750.json